sensor_id;sensor_type;location;lat;lon;timestamp;noise_LAeq;noise_LA_min;noise_LA_max;noise_LA01;noise_LA95
67900;Laerm;54700;51.796;10.956;2023-11-22T00:02:16;51.28;27.59;67.24;;
67900;Laerm;54700;51.796;10.956;2023-11-22T00:04:43;51.61;28.94;67.96;;
67900;Laerm;54700;51.796;10.956;2023-11-22T00:07:12;34.07;29.70;47.35;;
67900;Laerm;54700;51.796;10.956;2023-11-22T00:09:39;51.42;29.95;65.89;;
67900;Laerm;54700;51.796;10.956;2023-11-22T00:12:07;36.24;29.86;51.04;;
67900;Laerm;54700;51.796;10.956;2023-11-22T00:14:35;53.86;35.01;66.39;;
67900;Laerm;54700;51.796;10.956;2023-11-22T00:17:02;51.77;30.44;66.85;;
67900;Laerm;54700;51.796;10.956;2023-11-22T00:19:29;53.77;28.03;72.36;;
67900;Laerm;54700;51.796;10.956;2023-11-22T00:21:56;52.98;28.26;67.85;;
67900;Laerm;54700;51.796;10.956;2023-11-22T00:24:24;49.03;28.87;65.93;;
67900;Laerm;54700;51.796;10.956;2023-11-22T00:26:51;58.17;29.82;69.32;;
67900;Laerm;54700;51.796;10.956;2023-11-22T00:29:20;62.15;29.86;75.51;;
67900;Laerm;54700;51.796;10.956;2023-11-22T00:31:50;51.12;29.18;66.34;;
67900;Laerm;54700;51.796;10.956;2023-11-22T00:34:17;54.77;31.89;69.13;;
67900;Laerm;54700;51.796;10.956;2023-11-22T00:36:44;49.71;28.89;66.37;;
67900;Laerm;54700;51.796;10.956;2023-11-22T00:39:11;39.79;28.95;61.77;;
67900;Laerm;54700;51.796;10.956;2023-11-22T00:41:41;52.27;28.97;67.74;;
67900;Laerm;54700;51.796;10.956;2023-11-22T00:44:07;48.47;29.01;65.74;;
67900;Laerm;54700;51.796;10.956;2023-11-22T00:46:34;35.59;29.35;52.18;;
67900;Laerm;54700;51.796;10.956;2023-11-22T00:49:02;48.25;31.60;64.24;;
67900;Laerm;54700;51.796;10.956;2023-11-22T00:51:30;55.01;29.28;68.34;;
67900;Laerm;54700;51.796;10.956;2023-11-22T00:53:57;32.93;28.41;43.10;;
67900;Laerm;54700;51.796;10.956;2023-11-22T00:56:24;32.50;28.34;43.96;;
67900;Laerm;54700;51.796;10.956;2023-11-22T00:58:52;53.70;27.69;71.76;;
67900;Laerm;54700;51.796;10.956;2023-11-22T01:01:20;32.17;28.32;44.64;;
67900;Laerm;54700;51.796;10.956;2023-11-22T01:03:47;33.38;28.60;58.55;;
67900;Laerm;54700;51.796;10.956;2023-11-22T01:06:14;34.89;28.84;53.29;;
67900;Laerm;54700;51.796;10.956;2023-11-22T01:08:43;36.69;31.85;48.74;;
67900;Laerm;54700;51.796;10.956;2023-11-22T01:11:10;39.21;31.80;50.62;;
67900;Laerm;54700;51.796;10.956;2023-11-22T01:13:37;34.31;29.25;44.56;;
67900;Laerm;54700;51.796;10.956;2023-11-22T01:16:08;34.04;28.32;47.44;;
67900;Laerm;54700;51.796;10.956;2023-11-22T01:18:35;35.05;29.90;47.73;;
67900;Laerm;54700;51.796;10.956;2023-11-22T01:21:03;34.93;29.77;45.83;;
67900;Laerm;54700;51.796;10.956;2023-11-22T01:23:30;49.97;29.22;65.15;;
67900;Laerm;54700;51.796;10.956;2023-11-22T01:25:57;51.59;29.73;67.51;;
67900;Laerm;54700;51.796;10.956;2023-11-22T01:28:25;40.60;28.82;54.24;;
67900;Laerm;54700;51.796;10.956;2023-11-22T01:30:52;48.01;31.77;58.76;;
67900;Laerm;54700;51.796;10.956;2023-11-22T01:33:21;33.99;29.34;42.81;;
67900;Laerm;54700;51.796;10.956;2023-11-22T01:35:48;33.61;29.31;46.52;;
67900;Laerm;54700;51.796;10.956;2023-11-22T01:38:16;34.65;30.05;42.43;;
67900;Laerm;54700;51.796;10.956;2023-11-22T01:40:44;48.06;29.68;64.33;;
67900;Laerm;54700;51.796;10.956;2023-11-22T01:43:14;31.38;28.52;39.51;;
67900;Laerm;54700;51.796;10.956;2023-11-22T01:45:42;51.69;29.93;66.70;;
67900;Laerm;54700;51.796;10.956;2023-11-22T01:48:11;35.54;30.34;47.39;;
67900;Laerm;54700;51.796;10.956;2023-11-22T01:50:40;34.65;28.77;43.85;;
67900;Laerm;54700;51.796;10.956;2023-11-22T01:53:11;34.51;29.85;43.14;;
67900;Laerm;54700;51.796;10.956;2023-11-22T01:55:39;52.26;29.71;68.99;;
67900;Laerm;54700;51.796;10.956;2023-11-22T01:58:07;35.26;29.59;47.00;;
67900;Laerm;54700;51.796;10.956;2023-11-22T02:00:36;54.48;28.64;71.77;;
67900;Laerm;54700;51.796;10.956;2023-11-22T02:03:08;36.14;29.27;48.34;;
67900;Laerm;54700;51.796;10.956;2023-11-22T02:05:35;35.26;29.24;46.29;;
67900;Laerm;54700;51.796;10.956;2023-11-22T02:08:03;53.83;28.05;69.93;;
67900;Laerm;54700;51.796;10.956;2023-11-22T02:10:30;32.82;28.61;52.27;;
67900;Laerm;54700;51.796;10.956;2023-11-22T02:12:57;33.60;29.24;44.75;;
67900;Laerm;54700;51.796;10.956;2023-11-22T02:15:24;33.71;28.51;42.88;;
67900;Laerm;54700;51.796;10.956;2023-11-22T02:17:51;37.73;31.99;48.18;;
67900;Laerm;54700;51.796;10.956;2023-11-22T02:20:18;37.77;31.43;48.03;;
67900;Laerm;54700;51.796;10.956;2023-11-22T02:22:48;35.03;29.15;45.42;;
67900;Laerm;54700;51.796;10.956;2023-11-22T02:25:17;35.57;29.96;43.60;;
67900;Laerm;54700;51.796;10.956;2023-11-22T02:27:44;35.74;30.59;45.05;;
67900;Laerm;54700;51.796;10.956;2023-11-22T02:30:11;58.39;30.64;75.78;;
67900;Laerm;54700;51.796;10.956;2023-11-22T02:32:39;32.62;28.97;47.70;;
67900;Laerm;54700;51.796;10.956;2023-11-22T02:35:06;35.74;29.74;46.82;;
67900;Laerm;54700;51.796;10.956;2023-11-22T02:37:34;35.03;30.13;46.36;;
67900;Laerm;54700;51.796;10.956;2023-11-22T02:40:05;34.91;30.82;44.37;;
67900;Laerm;54700;51.796;10.956;2023-11-22T02:42:34;34.99;29.93;45.76;;
67900;Laerm;54700;51.796;10.956;2023-11-22T02:45:01;33.86;30.06;41.25;;
67900;Laerm;54700;51.796;10.956;2023-11-22T02:47:31;34.51;30.87;41.69;;
67900;Laerm;54700;51.796;10.956;2023-11-22T02:50:01;35.33;29.93;51.10;;
67900;Laerm;54700;51.796;10.956;2023-11-22T02:52:28;33.35;29.68;41.92;;
67900;Laerm;54700;51.796;10.956;2023-11-22T02:54:54;53.71;30.18;71.05;;
67900;Laerm;54700;51.796;10.956;2023-11-22T02:57:21;36.78;31.03;49.00;;
67900;Laerm;54700;51.796;10.956;2023-11-22T02:59:50;37.13;31.12;45.66;;
67900;Laerm;54700;51.796;10.956;2023-11-22T03:02:19;35.84;31.28;47.30;;
67900;Laerm;54700;51.796;10.956;2023-11-22T03:04:46;33.96;29.82;41.41;;
67900;Laerm;54700;51.796;10.956;2023-11-22T03:07:13;49.81;29.50;66.58;;
67900;Laerm;54700;51.796;10.956;2023-11-22T03:09:40;38.77;31.84;48.24;;
67900;Laerm;54700;51.796;10.956;2023-11-22T03:12:09;52.25;31.46;69.19;;
67900;Laerm;54700;51.796;10.956;2023-11-22T03:14:38;51.92;31.76;68.57;;
67900;Laerm;54700;51.796;10.956;2023-11-22T03:17:06;56.61;31.71;81.45;;
67900;Laerm;54700;51.796;10.956;2023-11-22T03:19:36;35.44;30.56;43.82;;
67900;Laerm;54700;51.796;10.956;2023-11-22T03:22:03;48.00;30.70;63.76;;
67900;Laerm;54700;51.796;10.956;2023-11-22T03:24:30;55.66;33.08;69.14;;
67900;Laerm;54700;51.796;10.956;2023-11-22T03:26:58;55.89;32.72;72.42;;
67900;Laerm;54700;51.796;10.956;2023-11-22T03:29:25;58.89;32.67;82.04;;
67900;Laerm;54700;51.796;10.956;2023-11-22T03:31:53;58.07;31.93;71.81;;
67900;Laerm;54700;51.796;10.956;2023-11-22T03:34:21;55.02;33.92;69.83;;
67900;Laerm;54700;51.796;10.956;2023-11-22T03:36:48;48.15;34.48;63.33;;
67900;Laerm;54700;51.796;10.956;2023-11-22T03:39:15;59.69;34.75;74.03;;
67900;Laerm;54700;51.796;10.956;2023-11-22T03:41:45;38.78;33.08;49.91;;
67900;Laerm;54700;51.796;10.956;2023-11-22T03:44:12;52.22;33.92;69.72;;
67900;Laerm;54700;51.796;10.956;2023-11-22T03:46:39;53.58;35.55;69.31;;
67900;Laerm;54700;51.796;10.956;2023-11-22T03:49:06;48.67;34.19;63.56;;
67900;Laerm;54700;51.796;10.956;2023-11-22T03:51:35;56.31;34.27;72.83;;
67900;Laerm;54700;51.796;10.956;2023-11-22T03:54:03;50.33;35.77;64.59;;
67900;Laerm;54700;51.796;10.956;2023-11-22T03:56:30;56.00;35.23;69.51;;
67900;Laerm;54700;51.796;10.956;2023-11-22T03:58:57;55.69;35.35;69.74;;
67900;Laerm;54700;51.796;10.956;2023-11-22T04:01:24;52.84;34.30;69.15;;
67900;Laerm;54700;51.796;10.956;2023-11-22T04:03:51;37.89;32.56;47.13;;
67900;Laerm;54700;51.796;10.956;2023-11-22T04:06:19;51.52;33.77;66.74;;
67900;Laerm;54700;51.796;10.956;2023-11-22T04:08:47;39.24;30.56;58.13;;
67900;Laerm;54700;51.796;10.956;2023-11-22T04:11:14;53.53;34.32;67.20;;
67900;Laerm;54700;51.796;10.956;2023-11-22T04:13:43;58.03;33.24;70.84;;
67900;Laerm;54700;51.796;10.956;2023-11-22T04:16:10;48.80;35.29;65.04;;
67900;Laerm;54700;51.796;10.956;2023-11-22T04:18:39;58.18;37.80;69.65;;
67900;Laerm;54700;51.796;10.956;2023-11-22T04:21:07;56.17;35.28;69.04;;
67900;Laerm;54700;51.796;10.956;2023-11-22T04:23:34;58.66;34.36;70.87;;
67900;Laerm;54700;51.796;10.956;2023-11-22T04:26:03;56.75;35.07;68.14;;
67900;Laerm;54700;51.796;10.956;2023-11-22T04:28:36;59.77;35.70;72.94;;
67900;Laerm;54700;51.796;10.956;2023-11-22T04:31:02;57.22;36.77;67.73;;
67900;Laerm;54700;51.796;10.956;2023-11-22T04:33:30;60.74;35.70;70.54;;
67900;Laerm;54700;51.796;10.956;2023-11-22T04:35:57;59.17;35.99;72.46;;
67900;Laerm;54700;51.796;10.956;2023-11-22T04:38:24;57.66;34.74;69.90;;
67900;Laerm;54700;51.796;10.956;2023-11-22T04:40:51;58.18;35.52;71.11;;
67900;Laerm;54700;51.796;10.956;2023-11-22T04:43:19;60.74;42.33;78.55;;
67900;Laerm;54700;51.796;10.956;2023-11-22T04:45:46;59.85;34.87;71.81;;
67900;Laerm;54700;51.796;10.956;2023-11-22T04:48:13;59.33;36.35;78.21;;
67900;Laerm;54700;51.796;10.956;2023-11-22T04:50:41;60.64;37.25;70.48;;
67900;Laerm;54700;51.796;10.956;2023-11-22T04:53:08;59.82;36.55;68.83;;
67900;Laerm;54700;51.796;10.956;2023-11-22T04:55:35;59.44;38.40;71.84;;
67900;Laerm;54700;51.796;10.956;2023-11-22T04:58:02;57.80;34.38;71.59;;
67900;Laerm;54700;51.796;10.956;2023-11-22T05:00:30;61.71;36.62;72.51;;
67900;Laerm;54700;51.796;10.956;2023-11-22T05:02:57;59.84;34.61;72.09;;
67900;Laerm;54700;51.796;10.956;2023-11-22T05:05:24;59.77;36.34;70.70;;
67900;Laerm;54700;51.796;10.956;2023-11-22T05:07:52;60.59;38.16;71.79;;
67900;Laerm;54700;51.796;10.956;2023-11-22T05:10:20;58.63;39.72;69.97;;
67900;Laerm;54700;51.796;10.956;2023-11-22T05:12:47;62.59;37.89;73.15;;
67900;Laerm;54700;51.796;10.956;2023-11-22T05:15:14;61.92;39.16;72.66;;
67900;Laerm;54700;51.796;10.956;2023-11-22T05:17:42;59.63;36.64;70.72;;
67900;Laerm;54700;51.796;10.956;2023-11-22T05:20:09;58.57;38.68;70.19;;
67900;Laerm;54700;51.796;10.956;2023-11-22T05:22:36;62.17;39.39;72.18;;
67900;Laerm;54700;51.796;10.956;2023-11-22T05:25:04;61.13;36.00;72.95;;
67900;Laerm;54700;51.796;10.956;2023-11-22T05:27:33;61.96;38.43;71.37;;
67900;Laerm;54700;51.796;10.956;2023-11-22T05:30:00;61.03;38.03;71.95;;
67900;Laerm;54700;51.796;10.956;2023-11-22T05:32:29;63.09;39.61;73.41;;
67900;Laerm;54700;51.796;10.956;2023-11-22T05:34:58;60.47;41.09;71.29;;
67900;Laerm;54700;51.796;10.956;2023-11-22T05:37:25;60.13;48.37;68.88;;
67900;Laerm;54700;51.796;10.956;2023-11-22T05:39:52;60.99;43.80;71.02;;
67900;Laerm;54700;51.796;10.956;2023-11-22T05:42:19;63.47;42.37;75.65;;
67900;Laerm;54700;51.796;10.956;2023-11-22T05:44:47;62.23;41.92;77.24;;
67900;Laerm;54700;51.796;10.956;2023-11-22T05:47:15;63.27;43.86;73.24;;
67900;Laerm;54700;51.796;10.956;2023-11-22T05:49:44;62.06;49.14;73.15;;
67900;Laerm;54700;51.796;10.956;2023-11-22T05:52:12;63.94;43.65;76.60;;
67900;Laerm;54700;51.796;10.956;2023-11-22T05:54:42;65.57;42.37;76.31;;
67900;Laerm;54700;51.796;10.956;2023-11-22T05:57:22;67.16;49.84;82.00;;
67900;Laerm;54700;51.796;10.956;2023-11-22T05:59:52;61.98;42.00;76.63;;
67900;Laerm;54700;51.796;10.956;2023-11-22T06:02:27;62.43;42.74;77.30;;
67900;Laerm;54700;51.796;10.956;2023-11-22T06:04:55;62.18;45.53;71.16;;
67900;Laerm;54700;51.796;10.956;2023-11-22T06:07:23;64.41;46.49;73.27;;
67900;Laerm;54700;51.796;10.956;2023-11-22T06:09:53;62.13;45.37;73.57;;
67900;Laerm;54700;51.796;10.956;2023-11-22T06:12:21;62.44;40.48;75.13;;
67900;Laerm;54700;51.796;10.956;2023-11-22T06:14:49;62.40;43.78;76.31;;
67900;Laerm;54700;51.796;10.956;2023-11-22T06:17:16;62.46;43.46;75.32;;
67900;Laerm;54700;51.796;10.956;2023-11-22T06:19:45;62.48;43.95;71.29;;
67900;Laerm;54700;51.796;10.956;2023-11-22T06:22:12;63.39;41.92;72.11;;
67900;Laerm;54700;51.796;10.956;2023-11-22T06:24:41;63.61;42.75;73.39;;
67900;Laerm;54700;51.796;10.956;2023-11-22T06:27:08;61.70;45.51;70.01;;
67900;Laerm;54700;51.796;10.956;2023-11-22T06:29:35;64.60;46.24;74.09;;
67900;Laerm;54700;51.796;10.956;2023-11-22T06:32:04;64.26;46.96;76.94;;
67900;Laerm;54700;51.796;10.956;2023-11-22T06:34:32;61.64;45.27;71.34;;
67900;Laerm;54700;51.796;10.956;2023-11-22T06:37:00;64.01;44.64;71.57;;
67900;Laerm;54700;51.796;10.956;2023-11-22T06:39:32;63.57;36.43;75.20;;
67900;Laerm;54700;51.796;10.956;2023-11-22T06:42:03;62.83;38.69;70.77;;
67900;Laerm;54700;51.796;10.956;2023-11-22T06:44:30;64.63;40.46;74.11;;
67900;Laerm;54700;51.796;10.956;2023-11-22T06:47:03;65.24;51.35;75.72;;
67900;Laerm;54700;51.796;10.956;2023-11-22T06:49:30;65.09;45.45;75.52;;
67900;Laerm;54700;51.796;10.956;2023-11-22T06:51:59;61.66;45.53;73.69;;
67900;Laerm;54700;51.796;10.956;2023-11-22T06:54:29;63.89;47.72;77.72;;
67900;Laerm;54700;51.796;10.956;2023-11-22T06:56:59;62.85;48.04;74.52;;
67900;Laerm;54700;51.796;10.956;2023-11-22T06:59:57;60.91;44.47;69.41;;
67900;Laerm;54700;51.796;10.956;2023-11-22T07:02:26;64.65;44.46;75.23;;
67900;Laerm;54700;51.796;10.956;2023-11-22T07:05:01;63.43;43.12;76.00;;
67900;Laerm;54700;51.796;10.956;2023-11-22T07:07:28;63.79;45.68;80.37;;
67900;Laerm;54700;51.796;10.956;2023-11-22T07:09:56;63.90;43.27;75.31;;
67900;Laerm;54700;51.796;10.956;2023-11-22T07:12:39;60.63;38.16;68.99;;
67900;Laerm;54700;51.796;10.956;2023-11-22T07:15:10;65.51;38.12;81.37;;
67900;Laerm;54700;51.796;10.956;2023-11-22T07:17:37;62.24;37.74;71.26;;
67900;Laerm;54700;51.796;10.956;2023-11-22T07:20:06;62.99;35.21;79.91;;
67900;Laerm;54700;51.796;10.956;2023-11-22T07:22:41;60.25;39.39;70.67;;
67900;Laerm;54700;51.796;10.956;2023-11-22T07:25:09;60.38;36.27;71.32;;
67900;Laerm;54700;51.796;10.956;2023-11-22T07:27:44;63.75;34.29;80.60;;
67900;Laerm;54700;51.796;10.956;2023-11-22T07:30:17;62.95;34.72;72.32;;
67900;Laerm;54700;51.796;10.956;2023-11-22T07:32:53;61.14;37.22;74.45;;
67900;Laerm;54700;51.796;10.956;2023-11-22T07:35:22;62.60;39.50;71.31;;
67900;Laerm;54700;51.796;10.956;2023-11-22T07:37:51;67.04;47.64;75.65;;
67900;Laerm;54700;51.796;10.956;2023-11-22T07:40:20;63.38;48.09;73.38;;
67900;Laerm;54700;51.796;10.956;2023-11-22T07:42:48;62.54;34.11;71.62;;
67900;Laerm;54700;51.796;10.956;2023-11-22T07:45:17;62.90;42.28;71.86;;
67900;Laerm;54700;51.796;10.956;2023-11-22T07:47:44;63.95;50.72;72.16;;
67900;Laerm;54700;51.796;10.956;2023-11-22T07:50:13;63.68;39.82;73.17;;
67900;Laerm;54700;51.796;10.956;2023-11-22T07:52:47;62.97;36.83;78.97;;
67900;Laerm;54700;51.796;10.956;2023-11-22T07:55:26;63.03;41.32;72.08;;
67900;Laerm;54700;51.796;10.956;2023-11-22T07:57:54;64.04;41.26;73.66;;
67900;Laerm;54700;51.796;10.956;2023-11-22T08:00:24;63.24;43.93;75.83;;
67900;Laerm;54700;51.796;10.956;2023-11-22T08:02:51;64.71;41.62;74.41;;
67900;Laerm;54700;51.796;10.956;2023-11-22T08:05:23;63.14;36.77;72.00;;
67900;Laerm;54700;51.796;10.956;2023-11-22T08:07:53;65.45;35.60;78.66;;
67900;Laerm;54700;51.796;10.956;2023-11-22T08:10:20;60.50;35.00;70.58;;
67900;Laerm;54700;51.796;10.956;2023-11-22T08:13:01;62.27;34.65;74.99;;
67900;Laerm;54700;51.796;10.956;2023-11-22T08:15:37;62.81;46.25;72.54;;
67900;Laerm;54700;51.796;10.956;2023-11-22T08:18:13;64.02;38.88;72.73;;
67900;Laerm;54700;51.796;10.956;2023-11-22T08:20:51;65.03;40.78;73.87;;
67900;Laerm;54700;51.796;10.956;2023-11-22T08:23:35;62.54;34.81;70.34;;
67900;Laerm;54700;51.796;10.956;2023-11-22T08:26:02;61.66;40.29;70.77;;
67900;Laerm;54700;51.796;10.956;2023-11-22T08:28:30;61.04;39.68;70.93;;
67900;Laerm;54700;51.796;10.956;2023-11-22T08:30:59;64.24;36.47;73.13;;
67900;Laerm;54700;51.796;10.956;2023-11-22T08:33:27;65.00;46.36;73.00;;
67900;Laerm;54700;51.796;10.956;2023-11-22T08:35:59;62.16;34.12;75.04;;
67900;Laerm;54700;51.796;10.956;2023-11-22T08:39:09;64.14;35.48;74.90;;
67900;Laerm;54700;51.796;10.956;2023-11-22T08:41:44;62.02;34.71;73.13;;
67900;Laerm;54700;51.796;10.956;2023-11-22T08:44:29;60.63;36.31;72.15;;
67900;Laerm;54700;51.796;10.956;2023-11-22T08:47:33;63.00;44.16;70.90;;
67900;Laerm;54700;51.796;10.956;2023-11-22T08:50:36;64.18;40.78;78.29;;
67900;Laerm;54700;51.796;10.956;2023-11-22T08:53:09;63.26;45.01;85.43;;
67900;Laerm;54700;51.796;10.956;2023-11-22T08:55:44;62.67;43.03;71.05;;
67900;Laerm;54700;51.796;10.956;2023-11-22T09:02:08;62.66;38.90;72.13;;
67900;Laerm;54700;51.796;10.956;2023-11-22T09:04:56;64.04;41.00;72.99;;
67900;Laerm;54700;51.796;10.956;2023-11-22T09:07:30;62.74;34.86;74.54;;
67900;Laerm;54700;51.796;10.956;2023-11-22T09:09:59;63.09;37.48;75.52;;
67900;Laerm;54700;51.796;10.956;2023-11-22T09:12:41;62.08;35.75;70.51;;
67900;Laerm;54700;51.796;10.956;2023-11-22T09:15:29;59.53;31.67;68.99;;
67900;Laerm;54700;51.796;10.956;2023-11-22T09:18:20;63.08;37.70;73.29;;
67900;Laerm;54700;51.796;10.956;2023-11-22T09:20:57;64.90;52.68;73.23;;
67900;Laerm;54700;51.796;10.956;2023-11-22T09:23:35;62.08;45.04;81.30;;
67900;Laerm;54700;51.796;10.956;2023-11-22T09:26:10;62.41;44.94;71.67;;
67900;Laerm;54700;51.796;10.956;2023-11-22T09:28:39;60.66;35.11;69.42;;
67900;Laerm;54700;51.796;10.956;2023-11-22T09:31:09;65.11;39.74;77.72;;
67900;Laerm;54700;51.796;10.956;2023-11-22T09:33:39;63.95;47.71;72.31;;
67900;Laerm;54700;51.796;10.956;2023-11-22T09:36:09;66.20;49.54;81.05;;
67900;Laerm;54700;51.796;10.956;2023-11-22T09:38:37;62.59;34.54;70.08;;
67900;Laerm;54700;51.796;10.956;2023-11-22T09:41:05;62.74;35.85;73.68;;
67900;Laerm;54700;51.796;10.956;2023-11-22T09:43:34;63.92;41.64;75.34;;
67900;Laerm;54700;51.796;10.956;2023-11-22T09:46:08;64.60;45.87;74.88;;
67900;Laerm;54700;51.796;10.956;2023-11-22T09:48:39;62.43;33.59;74.91;;
67900;Laerm;54700;51.796;10.956;2023-11-22T09:51:20;63.92;43.35;71.50;;
67900;Laerm;54700;51.796;10.956;2023-11-22T09:53:55;62.23;37.16;70.48;;
67900;Laerm;54700;51.796;10.956;2023-11-22T09:56:27;65.92;53.22;76.39;;
67900;Laerm;54700;51.796;10.956;2023-11-22T09:59:05;64.93;40.35;73.42;;
67900;Laerm;54700;51.796;10.956;2023-11-22T10:01:37;63.53;38.43;71.69;;
67900;Laerm;54700;51.796;10.956;2023-11-22T10:04:10;63.36;45.66;70.53;;
67900;Laerm;54700;51.796;10.956;2023-11-22T10:06:40;64.31;41.98;75.01;;
67900;Laerm;54700;51.796;10.956;2023-11-22T10:09:22;61.58;32.60;72.79;;
67900;Laerm;54700;51.796;10.956;2023-11-22T10:11:59;64.32;41.86;73.08;;
67900;Laerm;54700;51.796;10.956;2023-11-22T10:14:28;63.41;39.95;75.60;;
67900;Laerm;54700;51.796;10.956;2023-11-22T10:17:01;62.83;38.54;72.77;;
67900;Laerm;54700;51.796;10.956;2023-11-22T10:19:31;62.18;34.69;70.04;;
67900;Laerm;54700;51.796;10.956;2023-11-22T10:22:09;64.46;36.01;72.67;;
67900;Laerm;54700;51.796;10.956;2023-11-22T10:24:45;65.49;49.93;79.72;;
67900;Laerm;54700;51.796;10.956;2023-11-22T10:27:16;61.84;36.40;69.62;;
67900;Laerm;54700;51.796;10.956;2023-11-22T10:29:52;64.61;39.66;76.22;;
67900;Laerm;54700;51.796;10.956;2023-11-22T10:32:20;62.65;38.92;70.45;;
67900;Laerm;54700;51.796;10.956;2023-11-22T10:34:48;63.03;43.88;71.36;;
67900;Laerm;54700;51.796;10.956;2023-11-22T10:37:20;62.94;40.04;71.89;;
67900;Laerm;54700;51.796;10.956;2023-11-22T10:39:50;66.92;47.56;84.35;;
67900;Laerm;54700;51.796;10.956;2023-11-22T10:42:22;65.31;51.45;74.24;;
67900;Laerm;54700;51.796;10.956;2023-11-22T10:45:05;63.92;38.91;73.25;;
67900;Laerm;54700;51.796;10.956;2023-11-22T10:47:45;63.50;37.78;84.01;;
67900;Laerm;54700;51.796;10.956;2023-11-22T10:50:21;63.88;46.43;73.25;;
67900;Laerm;54700;51.796;10.956;2023-11-22T10:53:20;64.66;45.54;75.91;;
67900;Laerm;54700;51.796;10.956;2023-11-22T10:56:04;63.14;43.48;72.26;;
67900;Laerm;54700;51.796;10.956;2023-11-22T10:58:56;65.51;43.70;75.60;;
67900;Laerm;54700;51.796;10.956;2023-11-22T11:01:26;64.32;42.76;73.74;;
67900;Laerm;54700;51.796;10.956;2023-11-22T11:04:01;64.27;45.00;74.33;;
67900;Laerm;54700;51.796;10.956;2023-11-22T11:07:02;63.87;42.02;73.22;;
67900;Laerm;54700;51.796;10.956;2023-11-22T11:09:40;63.86;43.18;73.37;;
67900;Laerm;54700;51.796;10.956;2023-11-22T11:12:08;62.85;37.04;71.50;;
67900;Laerm;54700;51.796;10.956;2023-11-22T11:14:37;64.20;36.16;80.92;;
67900;Laerm;54700;51.796;10.956;2023-11-22T11:17:05;63.71;40.59;75.95;;
67900;Laerm;54700;51.796;10.956;2023-11-22T11:19:33;62.48;43.67;71.04;;
67900;Laerm;54700;51.796;10.956;2023-11-22T11:22:01;65.14;36.14;77.09;;
67900;Laerm;54700;51.796;10.956;2023-11-22T11:24:30;62.82;38.27;71.27;;
67900;Laerm;54700;51.796;10.956;2023-11-22T11:27:07;62.78;40.83;72.61;;
67900;Laerm;54700;51.796;10.956;2023-11-22T11:29:35;62.94;38.39;71.29;;
67900;Laerm;54700;51.796;10.956;2023-11-22T11:32:10;64.91;40.31;76.33;;
67900;Laerm;54700;51.796;10.956;2023-11-22T11:34:47;63.59;47.55;72.25;;
67900;Laerm;54700;51.796;10.956;2023-11-22T11:37:18;64.65;45.99;73.69;;
67900;Laerm;54700;51.796;10.956;2023-11-22T11:39:45;63.13;45.97;71.71;;
67900;Laerm;54700;51.796;10.956;2023-11-22T11:42:14;62.61;44.92;70.68;;
67900;Laerm;54700;51.796;10.956;2023-11-22T11:44:52;64.07;39.48;73.17;;
67900;Laerm;54700;51.796;10.956;2023-11-22T11:47:30;63.41;39.64;71.67;;
67900;Laerm;54700;51.796;10.956;2023-11-22T11:49:57;69.68;49.66;83.07;;
67900;Laerm;54700;51.796;10.956;2023-11-22T11:52:26;63.30;43.29;73.78;;
67900;Laerm;54700;51.796;10.956;2023-11-22T11:54:52;64.64;40.67;82.24;;
67900;Laerm;54700;51.796;10.956;2023-11-22T11:57:21;57.85;39.77;66.89;;
67900;Laerm;54700;51.796;10.956;2023-11-22T11:59:49;65.08;53.05;78.60;;
67900;Laerm;54700;51.796;10.956;2023-11-22T12:02:16;64.51;45.49;77.17;;
67900;Laerm;54700;51.796;10.956;2023-11-22T12:04:45;64.95;40.14;76.95;;
67900;Laerm;54700;51.796;10.956;2023-11-22T12:07:12;64.79;47.08;72.01;;
67900;Laerm;54700;51.796;10.956;2023-11-22T12:09:39;63.41;40.27;71.25;;
67900;Laerm;54700;51.796;10.956;2023-11-22T12:12:07;65.48;54.42;76.85;;
67900;Laerm;54700;51.796;10.956;2023-11-22T12:14:37;65.07;44.36;73.00;;
67900;Laerm;54700;51.796;10.956;2023-11-22T12:17:06;62.77;45.69;73.10;;
67900;Laerm;54700;51.796;10.956;2023-11-22T12:19:34;65.90;41.05;77.29;;
67900;Laerm;54700;51.796;10.956;2023-11-22T12:22:05;64.56;43.49;74.72;;
67900;Laerm;54700;51.796;10.956;2023-11-22T12:24:36;63.08;37.52;74.14;;
67900;Laerm;54700;51.796;10.956;2023-11-22T12:27:04;62.51;33.96;73.36;;
67900;Laerm;54700;51.796;10.956;2023-11-22T12:29:39;61.05;37.42;71.07;;
67900;Laerm;54700;51.796;10.956;2023-11-22T12:32:11;64.36;42.90;74.53;;
67900;Laerm;54700;51.796;10.956;2023-11-22T12:34:43;58.87;35.11;74.99;;
67900;Laerm;54700;51.796;10.956;2023-11-22T12:37:15;63.33;41.19;73.14;;
67900;Laerm;54700;51.796;10.956;2023-11-22T12:39:42;60.61;34.45;71.83;;
67900;Laerm;54700;51.796;10.956;2023-11-22T12:42:13;60.99;46.12;73.08;;
67900;Laerm;54700;51.796;10.956;2023-11-22T12:44:51;63.26;45.28;73.49;;
67900;Laerm;54700;51.796;10.956;2023-11-22T12:47:31;63.34;41.52;74.92;;
67900;Laerm;54700;51.796;10.956;2023-11-22T12:50:01;63.40;46.95;72.03;;
67900;Laerm;54700;51.796;10.956;2023-11-22T12:52:29;65.41;48.16;77.75;;
67900;Laerm;54700;51.796;10.956;2023-11-22T12:55:05;63.02;43.05;76.46;;
67900;Laerm;54700;51.796;10.956;2023-11-22T12:57:34;62.31;41.30;70.71;;
67900;Laerm;54700;51.796;10.956;2023-11-22T13:00:03;63.41;44.08;74.56;;
67900;Laerm;54700;51.796;10.956;2023-11-22T13:02:31;63.39;40.24;73.90;;
67900;Laerm;54700;51.796;10.956;2023-11-22T13:04:58;63.03;36.43;71.73;;
67900;Laerm;54700;51.796;10.956;2023-11-22T13:07:25;64.87;47.67;75.02;;
67900;Laerm;54700;51.796;10.956;2023-11-22T13:09:52;64.77;38.10;80.96;;
67900;Laerm;54700;51.796;10.956;2023-11-22T13:12:19;62.16;39.12;74.63;;
67900;Laerm;54700;51.796;10.956;2023-11-22T13:14:46;64.12;37.06;78.12;;
67900;Laerm;54700;51.796;10.956;2023-11-22T13:17:14;63.86;39.00;77.56;;
67900;Laerm;54700;51.796;10.956;2023-11-22T13:19:41;65.99;33.35;75.90;;
67900;Laerm;54700;51.796;10.956;2023-11-22T13:22:09;63.72;39.56;70.67;;
67900;Laerm;54700;51.796;10.956;2023-11-22T13:24:36;65.21;42.48;76.50;;
67900;Laerm;54700;51.796;10.956;2023-11-22T13:27:03;65.81;43.86;80.71;;
67900;Laerm;54700;51.796;10.956;2023-11-22T13:29:30;64.83;38.78;76.49;;
67900;Laerm;54700;51.796;10.956;2023-11-22T13:31:57;65.13;39.13;78.94;;
67900;Laerm;54700;51.796;10.956;2023-11-22T13:34:26;63.26;42.36;75.14;;
67900;Laerm;54700;51.796;10.956;2023-11-22T13:36:54;63.66;45.95;71.86;;
67900;Laerm;54700;51.796;10.956;2023-11-22T13:39:22;60.87;37.68;72.50;;
67900;Laerm;54700;51.796;10.956;2023-11-22T13:41:48;62.49;35.30;69.51;;
67900;Laerm;54700;51.796;10.956;2023-11-22T13:44:15;62.13;33.53;70.43;;
67900;Laerm;54700;51.796;10.956;2023-11-22T13:46:44;66.43;46.00;77.95;;
67900;Laerm;54700;51.796;10.956;2023-11-22T13:49:11;66.30;41.62;77.33;;
67900;Laerm;54700;51.796;10.956;2023-11-22T13:51:39;63.61;44.67;71.47;;
67900;Laerm;54700;51.796;10.956;2023-11-22T13:54:06;63.13;38.76;71.03;;